Time;durP1;ratioP1;P1;durP2;ratioP2;P2;SDS_P1;SDS_P2;PMS_P1;PMS_P2;Temp;Humidity;BMP_temperature;BMP_pressure;BME280_temperature;BME280_humidity;BME280_pressure;Samples;Min_cycle;Max_cycle;Signal;HPM_P1;HPM_P2
2023/09/29 00:00:20;;;;;;;13.48;4.82;;;;;;;15.10;100.00;101579.19;6280277;22;20083;-90
2023/09/29 00:02:47;;;;;;;10.73;3.95;;;;;;;15.12;100.00;101576.81;6283032;22;20438;-90
2023/09/29 00:05:17;;;;;;;11.90;4.72;;;;;;;15.12;100.00;101576.81;6282219;22;20012;-89
2023/09/29 00:07:45;;;;;;;14.05;4.65;;;;;;;15.13;100.00;101571.00;6280956;22;20043;-89
2023/09/29 00:10:16;;;;;;;13.35;4.28;;;;;;;15.14;100.00;101569.81;6280505;22;20411;-90
2023/09/29 00:12:44;;;;;;;;;;;;;;;15.17;100.00;101576.94;6282447;22;20316;-89
2023/09/29 00:15:11;;;;;;;14.68;4.57;;;;;;;15.18;100.00;101573.06;6280503;22;19926;-90
2023/09/29 00:17:38;;;;;;;12.15;4.60;;;;;;;15.19;100.00;101577.25;6281936;22;20430;-89
2023/09/29 00:22:45;;;;;;;16.80;4.88;;;;;;;15.22;100.00;101576.31;6282232;22;20012;-90
2023/09/29 00:25:11;;;;;;;14.35;4.35;;;;;;;15.25;100.00;101569.31;6282399;22;20012;-89
2023/09/29 00:27:38;;;;;;;12.05;3.97;;;;;;;15.26;100.00;101573.47;6283640;22;20016;-88
2023/09/29 00:30:05;;;;;;;17.70;4.63;;;;;;;15.27;100.00;101569.59;6284219;22;20020;-89
2023/09/29 00:32:32;;;;;;;20.60;4.50;;;;;;;15.26;100.00;101570.81;6281806;22;20022;-88
2023/09/29 00:34:59;;;;;;;12.45;4.57;;;;;;;15.29;100.00;101564.53;6283187;22;20019;-88
2023/09/29 00:37:25;;;;;;;11.63;4.35;;;;;;;15.29;100.00;101570.63;6255643;22;20020;-88
2023/09/29 00:39:55;;;;;;;13.85;4.22;;;;;;;15.30;100.00;101566.75;6283399;22;20020;-88
2023/09/29 00:42:22;;;;;;;8.07;3.75;;;;;;;15.32;100.00;101564.38;6281779;22;20016;-89
2023/09/29 00:44:49;;;;;;;10.18;4.03;;;;;;;15.33;100.00;101562.44;6285900;22;20092;-88
2023/09/29 00:47:15;;;;;;;11.13;4.97;;;;;;;15.34;100.00;101553.94;6283632;22;20493;-90
2023/09/29 00:49:42;;;;;;;14.18;4.43;;;;;;;15.37;100.00;101540.81;6282133;22;20024;-87
2023/09/29 00:52:09;;;;;;;9.10;4.57;;;;;;;15.38;100.00;101539.63;6284020;22;20481;-88
2023/09/29 00:54:36;;;;;;;17.63;4.53;;;;;;;15.40;100.00;101543.34;6282793;22;20016;-90
2023/09/29 00:57:05;;;;;;;14.43;4.43;;;;;;;15.43;100.00;101539.00;6284595;22;20016;-89
2023/09/29 00:59:34;;;;;;;12.73;4.15;;;;;;;15.46;100.00;101530.06;6284692;22;20461;-90
2023/09/29 01:02:03;;;;;;;8.52;3.97;;;;;;;15.47;100.00;101520.81;6282915;22;20016;-90
2023/09/29 01:04:30;;;;;;;9.68;4.15;;;;;;;15.48;100.00;101516.94;6283501;22;20069;-90
2023/09/29 01:06:57;;;;;;;9.50;3.95;;;;;;;15.50;100.00;101517.97;6282643;22;20111;-89
2023/09/29 01:09:24;;;;;;;8.85;4.30;;;;;;;15.53;100.00;101525.09;6284866;22;20055;-90
2023/09/29 01:11:52;;;;;;;6.78;3.63;;;;;;;15.53;100.00;101516.31;6284028;22;20626;-90
2023/09/29 01:14:18;;;;;;;14.27;4.13;;;;;;;15.55;100.00;101508.56;6282686;22;20016;-90
2023/09/29 01:16:45;;;;;;;12.25;4.03;;;;;;;15.57;100.00;101504.25;6283758;22;20446;-90
2023/09/29 01:19:13;;;;;;;13.07;4.32;;;;;;;15.61;100.00;101506.75;6282594;22;20027;-90
2023/09/29 01:21:40;;;;;;;17.05;4.45;;;;;;;15.64;100.00;101509.25;6286323;22;20012;-89
2023/09/29 01:24:07;;;;;;;14.13;4.72;;;;;;;15.67;100.00;101504.91;6300644;22;20012;-90
2023/09/29 01:26:34;;;;;;;11.32;4.10;;;;;;;15.68;100.00;101501.78;6306256;22;20016;-90
2023/09/29 01:29:00;;;;;;;16.75;4.60;;;;;;;15.72;100.00;101500.88;6290016;22;20017;-90
2023/09/29 01:31:27;;;;;;;9.63;4.28;;;;;;;15.74;100.00;101499.22;6284160;22;20832;-89
2023/09/29 01:33:54;;;;;;;10.80;4.20;;;;;;;15.76;100.00;101494.13;6283647;22;20478;-89
2023/09/29 01:36:21;;;;;;;10.13;4.68;;;;;;;15.78;100.00;101493.69;6280635;22;20100;-88
2023/09/29 01:38:47;;;;;;;15.10;5.05;;;;;;;15.82;100.00;101488.88;6282459;22;20502;-89
2023/09/29 01:41:15;;;;;;;17.88;4.32;;;;;;;15.84;100.00;101497.22;6282542;22;20099;-90
2023/09/29 01:43:42;;;;;;;14.95;4.95;;;;;;;15.85;100.00;101490.66;6282442;22;20493;-89
2023/09/29 01:46:09;;;;;;;14.55;4.03;;;;;;;15.86;100.00;101497.50;6281981;22;20026;-89
2023/09/29 01:48:36;;;;;;;9.45;4.30;;;;;;;15.87;100.00;101505.13;6281450;22;20031;-90
2023/09/29 01:51:03;;;;;;;13.65;4.47;;;;;;;15.88;100.00;101493.16;6282645;22;20020;-90
2023/09/29 01:53:32;;;;;;;17.42;4.45;;;;;;;15.90;100.00;101488.09;6283182;22;20012;-89
2023/09/29 01:56:01;;;;;;;11.63;4.57;;;;;;;15.93;100.00;101475.69;6284358;22;20012;-91
2023/09/29 01:58:29;;;;;;;12.43;4.47;;;;;;;15.95;100.00;101481.34;6281863;22;20110;-90
2023/09/29 02:00:56;;;;;;;17.10;4.90;;;;;;;15.95;100.00;101486.72;6282192;22;20103;-91
2023/09/29 02:03:24;;;;;;;10.07;4.60;;;;;;;15.98;100.00;101485.81;6281068;22;20508;-89
2023/09/29 02:05:50;;;;;;;12.98;4.15;;;;;;;15.98;100.00;101483.88;6283354;22;20012;-90
2023/09/29 02:08:18;;;;;;;8.80;4.53;;;;;;;15.98;100.00;101478.50;6283552;22;20020;-89
2023/09/29 02:10:49;;;;;;;15.27;4.97;;;;;;;15.97;100.00;101471.63;6285569;22;20108;-89
2023/09/29 02:13:17;;;;;;;9.75;4.20;;;;;;;15.95;100.00;101468.66;6283245;22;20024;-91
2023/09/29 02:15:44;;;;;;;11.23;4.95;;;;;;;15.96;100.00;101469.41;6282527;22;20013;-91
2023/09/29 02:18:11;;;;;;;15.70;4.15;;;;;;;15.95;100.00;101468.66;6281970;22;20486;-90
2023/09/29 02:20:46;;;;;;;15.95;4.45;;;;;;;15.96;100.00;101469.41;6283237;22;20386;-91
2023/09/29 02:23:14;;;;;;;15.43;4.80;;;;;;;15.95;100.00;101467.91;6283686;22;20023;-93
2023/09/29 02:25:42;;;;;;;10.38;4.18;;;;;;;15.94;100.00;101464.50;6284854;22;20005;-91
2023/09/29 02:28:11;;;;;;;14.18;4.97;;;;;;;15.96;100.00;101461.34;6281804;22;20024;-91
2023/09/29 02:30:38;;;;;;;12.07;4.60;;;;;;;15.95;100.00;101457.19;6281602;22;20111;-91
2023/09/29 02:33:06;;;;;;;12.55;4.70;;;;;;;15.96;100.00;101450.63;6282915;22;20075;-90
2023/09/29 02:35:34;;;;;;;16.08;4.53;;;;;;;15.98;100.00;101450.91;6281446;22;20055;-90
2023/09/29 02:38:02;;;;;;;16.58;4.35;;;;;;;15.96;100.00;101445.97;6283998;22;20020;-92
2023/09/29 02:40:28;;;;;;;12.80;4.53;;;;;;;15.97;100.00;101450.16;6283370;22;20027;-90
2023/09/29 02:42:55;;;;;;;9.80;4.00;;;;;;;15.97;100.00;101449.41;6283723;22;20024;-91
2023/09/29 02:45:24;;;;;;;16.23;4.60;;;;;;;15.97;100.00;101449.41;6281816;22;20016;-90
2023/09/29 02:47:52;;;;;;;14.13;4.05;;;;;;;15.97;100.00;101446.72;6281351;22;20020;-90
2023/09/29 02:50:19;;;;;;;16.30;4.78;;;;;;;15.98;100.00;101440.16;6282209;22;20346;-90
2023/09/29 02:52:46;;;;;;;14.70;4.53;;;;;;;15.99;100.00;101439.66;6282596;22;20051;-90
2023/09/29 02:55:14;;;;;;;10.45;4.22;;;;;;;16.01;100.00;101431.91;6282394;22;20080;-90
2023/09/29 02:57:42;;;;;;;14.88;4.47;;;;;;;16.02;100.00;101427.28;6283159;22;20040;-91
2023/09/29 03:00:18;;;;;;;12.18;4.43;;;;;;;16.02;100.00;101416.53;6280179;22;20020;-89
2023/09/29 03:02:46;;;;;;;12.63;4.57;;;;;;;16.03;100.00;101415.31;6283500;22;20023;-90
2023/09/29 03:05:14;;;;;;;11.88;4.75;;;;;;;16.05;99.84;101415.59;6290486;22;20043;-91
2023/09/29 03:07:42;;;;;;;14.50;5.03;;;;;;;16.06;99.76;101416.34;6281380;22;20070;-90
2023/09/29 03:10:12;;;;;;;11.52;5.40;;;;;;;16.08;99.83;101420.06;6283437;22;20012;-90
2023/09/29 03:12:39;;;;;;;9.07;4.10;;;;;;;16.08;99.72;101417.38;6283597;22;20016;-93
2023/09/29 03:15:08;;;;;;;13.57;4.57;;;;;;;16.10;99.59;101416.91;6283358;22;20012;-90
2023/09/29 03:17:34;;;;;;;10.25;4.45;;;;;;;16.11;99.52;101416.44;6283065;22;20495;-88
2023/09/29 03:20:09;;;;;;;9.85;4.72;;;;;;;16.12;99.17;101409.13;6282313;22;20063;-90
2023/09/29 03:22:38;;;;;;;4.75;4.15;;;;;;;16.14;99.17;101410.16;6282156;22;20025;-90
2023/09/29 03:25:05;;;;;;;7.78;4.38;;;;;;;16.15;98.38;101392.84;6282568;22;20016;-89
2023/09/29 03:27:34;;;;;;;13.77;4.70;;;;;;;16.16;98.36;101390.91;6282183;22;20022;-89
2023/09/29 03:30:01;;;;;;;9.70;3.90;;;;;;;16.17;98.44;101397.75;6281822;22;20013;-90
2023/09/29 03:32:29;;;;;;;10.02;4.78;;;;;;;16.17;98.21;101401.19;6282035;22;20020;-89
2023/09/29 03:34:56;;;;;;;8.02;4.20;;;;;;;16.19;98.55;101390.72;6282245;22;20422;-89
2023/09/29 03:37:23;;;;;;;6.50;4.20;;;;;;;16.20;98.35;101392.19;6281317;22;20016;-89
2023/09/29 03:39:50;;;;;;;10.52;4.50;;;;;;;16.21;98.48;101390.25;6282231;22;20019;-89
2023/09/29 03:42:16;;;;;;;6.40;4.15;;;;;;;16.21;97.95;101385.63;6280256;22;20040;-88
2023/09/29 03:44:46;;;;;;;7.63;4.57;;;;;;;16.23;98.50;101387.84;6281646;22;20092;-87
2023/09/29 03:47:14;;;;;;;10.50;4.07;;;;;;;16.23;98.12;101404.72;6281889;22;20481;-88
2023/09/29 03:49:43;;;;;;;5.63;4.13;;;;;;;16.23;98.47;101404.72;6281681;22;20039;-88
2023/09/29 03:52:09;;;;;;;7.55;4.25;;;;;;;16.24;98.67;101397.41;6281432;22;20024;-89
2023/09/29 03:54:36;;;;;;;8.07;4.35;;;;;;;16.24;99.73;101378.59;6282960;22;20012;-88
2023/09/29 03:57:10;;;;;;;7.75;4.50;;;;;;;16.22;100.00;101378.31;6285103;22;20023;-89
2023/09/29 03:59:37;;;;;;;10.05;4.57;;;;;;;16.21;100.00;101376.81;6286157;22;20068;-89
2023/09/29 04:02:04;;;;;;;7.28;3.80;;;;;;;16.18;100.00;101369.69;6284741;22;20453;-87
2023/09/29 04:04:32;;;;;;;13.35;4.65;;;;;;;16.18;100.00;101373.13;6281643;22;20023;-88
2023/09/29 04:06:58;;;;;;;8.57;4.55;;;;;;;16.16;100.00;101364.78;6282430;22;20012;-88
2023/09/29 04:09:25;;;;;;;6.30;3.90;;;;;;;16.17;100.00;101362.84;6282665;22;20781;-89
2023/09/29 04:11:52;;;;;;;8.52;4.53;;;;;;;16.14;100.00;101359.13;6281521;22;20070;-88
2023/09/29 04:14:18;;;;;;;11.32;4.32;;;;;;;16.14;100.00;101353.03;6281591;22;20016;-88
2023/09/29 04:16:59;;;;;;;12.45;4.30;;;;;;;16.13;100.00;101344.22;6282319;22;20512;-88
2023/09/29 04:19:26;;;;;;;7.68;3.92;;;;;;;16.14;100.00;101340.34;6281340;22;20535;-88
2023/09/29 04:21:52;;;;;;;5.72;3.80;;;;;;;16.13;100.00;101335.41;6281386;22;20115;-88
2023/09/29 04:24:19;;;;;;;8.73;3.92;;;;;;;16.14;100.00;101339.59;6279934;22;20470;-89
2023/09/29 04:26:45;;;;;;;6.00;3.78;;;;;;;16.14;100.00;101342.28;6279835;22;20026;-88
2023/09/29 04:29:12;;;;;;;9.05;3.88;;;;;;;16.14;100.00;101344.97;6281513;22;20016;-88
2023/09/29 04:31:39;;;;;;;5.78;3.70;;;;;;;16.15;100.00;101335.69;6279886;22;20023;-88
2023/09/29 04:34:06;;;;;;;7.30;3.92;;;;;;;16.16;100.00;101331.81;6284407;22;20016;-88
2023/09/29 04:36:32;;;;;;;5.88;3.60;;;;;;;16.17;100.00;101333.28;6301279;22;20004;-88
2023/09/29 04:38:59;;;;;;;5.63;3.67;;;;;;;16.18;100.00;101338.19;6304497;22;20005;-87
2023/09/29 04:41:26;;;;;;;4.90;3.30;;;;;;;16.18;100.00;101330.16;6290405;22;20016;-90
2023/09/29 04:43:52;;;;;;;10.82;4.22;;;;;;;16.19;100.00;101323.56;6281363;22;20016;-89
2023/09/29 04:46:19;;;;;;;9.23;3.75;;;;;;;16.21;100.00;101318.47;6286259;22;20024;-91
2023/09/29 04:48:46;;;;;;;9.25;3.95;;;;;;;16.21;100.00;101318.47;6286345;22;20016;-89
2023/09/29 04:51:12;;;;;;;6.57;3.67;;;;;;;16.23;100.00;101326.06;6283426;22;20012;-91
2023/09/29 04:53:39;;;;;;;6.07;3.17;;;;;;;16.24;100.00;101328.28;6282597;22;20505;-90
2023/09/29 04:56:05;;;;;;;6.60;3.47;;;;;;;16.26;100.00;101323.19;6282865;22;20051;-90
2023/09/29 04:58:32;;;;;;;5.43;3.20;;;;;;;16.28;100.00;101312.72;6282471;22;20039;-91
2023/09/29 05:00:59;;;;;;;3.92;3.20;;;;;;;16.28;100.00;101317.38;6284578;22;20016;-90
2023/09/29 05:03:26;;;;;;;8.52;3.50;;;;;;;16.29;100.00;101313.47;6281328;22;20020;-90
2023/09/29 05:05:52;;;;;;;7.85;3.38;;;;;;;16.28;100.00;101312.72;6282195;22;20096;-90
2023/09/29 05:08:19;;;;;;;5.50;3.45;;;;;;;16.30;100.00;101309.59;6285363;22;20013;-90
2023/09/29 05:10:46;;;;;;;4.32;3.55;;;;;;;16.30;100.00;101312.25;6285229;22;20019;-91
2023/09/29 05:13:12;;;;;;;7.15;3.42;;;;;;;16.30;100.00;101313.00;6284549;22;20072;-90
2023/09/29 05:15:39;;;;;;;6.32;2.97;;;;;;;16.30;100.00;101307.63;6284881;22;20011;-89
2023/09/29 05:18:05;;;;;;;6.38;3.10;;;;;;;16.31;100.00;101301.06;6283146;22;20127;-89
2023/09/29 05:20:32;;;;;;;9.35;3.50;;;;;;;16.31;100.00;101297.63;6283853;22;20017;-89
2023/09/29 05:22:59;;;;;;;7.40;3.05;;;;;;;16.31;100.00;101301.06;6283634;22;20016;-90
2023/09/29 05:25:25;;;;;;;8.13;3.65;;;;;;;16.30;100.00;101304.22;6283040;22;20023;-89
2023/09/29 05:27:52;;;;;;;7.38;3.72;;;;;;;16.30;100.00;101307.63;6283952;22;20079;-89
2023/09/29 05:30:19;;;;;;;5.00;3.25;;;;;;;16.31;100.00;101300.31;6283680;22;20024;-90
2023/09/29 05:32:46;;;;;;;4.05;3.22;;;;;;;16.29;100.00;101300.78;6283612;22;20020;-90
2023/09/29 05:35:12;;;;;;;5.65;3.45;;;;;;;16.30;100.00;101309.59;6284156;22;20023;-89
2023/09/29 05:37:39;;;;;;;7.60;3.50;;;;;;;16.29;100.00;101311.53;6283433;22;20548;-90
2023/09/29 05:40:06;;;;;;;11.27;4.15;;;;;;;16.28;100.00;101318.09;6282251;22;20350;-88
2023/09/29 05:42:33;;;;;;;5.95;3.63;;;;;;;16.29;100.00;101316.91;6282740;22;20019;-89
2023/09/29 05:45:18;;;;;;;5.15;3.53;;;;;;;16.29;100.00;101308.09;6281636;22;20115;-90
2023/09/29 05:47:47;;;;;;;4.57;3.80;;;;;;;16.29;100.00;101302.72;6282592;22;20115;-90
2023/09/29 05:50:13;;;;;;;5.35;3.45;;;;;;;16.29;100.00;101308.09;6281042;22;20020;-90
2023/09/29 05:52:46;;;;;;;3.70;3.30;;;;;;;16.30;100.00;101310.31;6281688;22;20020;-90
2023/09/29 05:55:32;;;;;;;10.48;3.53;;;;;;;16.30;100.00;101307.63;6282914;22;20022;-90
2023/09/29 05:57:59;;;;;;;5.47;3.45;;;;;;;16.31;100.00;101306.44;6283053;22;20012;-90
2023/09/29 06:00:26;;;;;;;3.58;3.28;;;;;;;16.30;100.00;101315.69;6280946;22;20020;-89
2023/09/29 06:02:53;;;;;;;6.05;3.85;;;;;;;16.31;100.00;101309.13;6282928;22;20048;-88
2023/09/29 06:05:20;;;;;;;7.65;3.58;;;;;;;16.32;100.00;101310.59;6282624;22;20020;-89
2023/09/29 06:07:47;;;;;;;7.28;3.50;;;;;;;16.33;100.00;101319.41;6281301;22;20012;-90
2023/09/29 06:10:14;;;;;;;6.20;3.38;;;;;;;16.32;100.00;101318.66;6284368;22;20012;-90
2023/09/29 06:12:41;;;;;;;5.45;3.70;;;;;;;16.32;100.00;101302.53;6282577;22;20051;-85
2023/09/29 06:15:09;;;;;;;5.97;3.50;;;;;;;16.32;100.00;101315.97;6281915;22;20052;-86
2023/09/29 06:17:36;;;;;;;3.55;3.25;;;;;;;16.33;100.00;101317.47;6281194;22;20104;-86
2023/09/29 06:20:04;;;;;;;5.72;3.47;;;;;;;16.36;100.00;101315.03;6280185;22;20051;-85
2023/09/29 06:22:31;;;;;;;8.63;3.20;;;;;;;16.37;100.00;101316.53;6281424;22;20024;-86
2023/09/29 06:24:57;;;;;;;6.43;3.72;;;;;;;16.40;100.00;101320.94;6282568;22;20454;-83
2023/09/29 06:27:24;;;;;;;16.58;3.38;;;;;;;16.41;100.00;101307.03;6282065;22;20028;-85
2023/09/29 06:29:50;;;;;;;3.85;3.38;;;;;;;16.45;100.00;101312.97;6281627;22;20027;-88
2023/09/29 06:32:17;;;;;;;3.75;3.40;;;;;;;16.48;100.00;101312.03;6282055;22;20039;-89
2023/09/29 06:34:44;;;;;;;3.97;3.50;;;;;;;16.50;100.00;101315.00;6281560;22;20091;-84
2023/09/29 06:37:11;;;;;;;7.63;3.83;;;;;;;16.54;100.00;101314.81;6279680;22;20074;-89
2023/09/29 06:39:37;;;;;;;6.30;3.67;;;;;;;16.58;100.00;101326.13;6282094;22;20022;-85
2023/09/29 06:42:04;;;;;;;3.75;3.45;;;;;;;16.61;100.00;101320.53;6283210;22;20019;-86
2023/09/29 06:44:32;;;;;;;6.50;3.40;;;;;;;16.63;100.00;101320.81;6279899;22;20023;-85
2023/09/29 06:46:59;;;;;;;3.97;3.28;;;;;;;16.66;100.00;101325.28;6279771;22;20560;-89
2023/09/29 06:49:26;;;;;;;5.43;3.67;;;;;;;16.71;100.00;101323.91;6282479;22;20008;-85
2023/09/29 06:51:52;;;;;;;5.32;3.88;;;;;;;16.75;100.00;101319.06;6282425;22;20013;-86
2023/09/29 06:54:19;;;;;;;4.40;3.83;;;;;;;16.76;100.00;101320.56;6283315;22;20461;-83
2023/09/29 06:56:46;;;;;;;9.80;3.55;;;;;;;16.77;100.00;101322.03;6282112;22;20016;-83
2023/09/29 06:59:13;;;;;;;3.78;3.47;;;;;;;16.79;100.00;101332.31;6284407;22;20019;-84
2023/09/29 07:01:40;;;;;;;7.03;3.80;;;;;;;16.81;100.00;101333.31;6283474;22;20016;-81
2023/09/29 07:04:06;;;;;;;7.38;4.07;;;;;;;16.84;100.00;101335.06;6282589;22;20039;-81
2023/09/29 07:06:36;;;;;;;4.03;3.63;;;;;;;16.88;100.00;101335.59;6280480;22;20024;-81
2023/09/29 07:09:03;;;;;;;3.88;3.25;;;;;;;16.91;100.00;101325.88;6281438;22;20012;-83
2023/09/29 07:11:30;;;;;;;7.47;4.03;;;;;;;16.95;100.00;101329.09;6279795;22;20043;-86
2023/09/29 07:13:57;;;;;;;4.95;3.90;;;;;;;17.00;100.00;101336.50;6282864;22;20026;-84
2023/09/29 07:16:24;;;;;;;5.68;4.00;;;;;;;17.06;100.00;101331.94;6279748;22;20020;-87
2023/09/29 07:18:52;;;;;;;3.70;3.40;;;;;;;17.14;100.00;101332.28;6254736;22;20103;-82
2023/09/29 07:21:19;;;;;;;4.90;3.78;;;;;;;17.21;100.00;101334.56;6280241;22;20016;-83
2023/09/29 07:23:46;;;;;;;5.78;3.80;;;;;;;17.26;100.00;101329.25;6282381;22;20024;-83
2023/09/29 07:26:13;;;;;;;3.45;3.15;;;;;;;17.33;100.00;101328.84;6281719;22;20027;-84
2023/09/29 07:28:40;;;;;;;4.05;3.30;;;;;;;17.42;100.00;101329.91;6281831;22;20012;-82
2023/09/29 07:31:07;;;;;;;5.10;3.00;;;;;;;17.49;100.00;101332.94;6282052;22;20062;-87
2023/09/29 07:33:34;;;;;;;3.15;2.95;;;;;;;17.57;100.00;101339.41;6281266;22;20044;-87
2023/09/29 07:36:00;;;;;;;5.50;3.38;;;;;;;17.68;100.00;101338.78;6284429;22;20103;-87
2023/09/29 07:38:27;;;;;;;3.15;2.83;;;;;;;17.76;100.00;101344.50;6284279;22;20098;-87
2023/09/29 07:40:54;;;;;;;3.38;3.08;;;;;;;17.87;100.00;101348.03;6284108;22;20079;-86
2023/09/29 07:43:20;;;;;;;5.78;3.13;;;;;;;18.04;100.00;101347.44;6287256;22;20067;-87
2023/09/29 07:45:47;;;;;;;4.13;2.90;;;;;;;18.15;100.00;101347.53;6287295;22;20452;-82
2023/09/29 07:48:16;;;;;;;4.03;2.70;;;;;;;18.19;100.00;101346.13;6288210;22;20035;-83
2023/09/29 07:50:43;;;;;;;5.65;3.35;;;;;;;18.20;100.00;101353.00;6287064;22;20434;-90
2023/09/29 07:53:11;;;;;;;3.85;3.08;;;;;;;18.21;100.00;101349.06;6287357;22;20024;-84
2023/09/29 07:55:38;;;;;;;3.35;3.00;;;;;;;18.22;100.00;101353.25;6283110;22;20016;-85
2023/09/29 07:58:06;;;;;;;2.90;2.70;;;;;;;18.28;100.00;101356.72;6281363;22;20054;-85
2023/09/29 08:00:33;;;;;;;4.10;3.10;;;;;;;18.37;100.00;101353.13;6280672;22;20016;-85
2023/09/29 08:03:00;;;;;;;3.00;2.80;;;;;;;18.43;100.00;101353.88;6281156;22;20024;-84
2023/09/29 08:05:27;;;;;;;4.13;3.15;;;;;;;18.49;100.00;101362.75;6280450;22;20020;-87
2023/09/29 08:07:53;;;;;;;3.67;2.75;;;;;;;18.51;100.00;101360.31;6281276;22;20012;-87
2023/09/29 08:10:20;;;;;;;4.55;2.90;;;;;;;18.50;100.00;101364.25;6282309;22;20461;-89
2023/09/29 08:12:47;;;;;;;4.82;2.80;;;;;;;18.51;100.00;101362.28;6290524;22;20004;-88
2023/09/29 08:15:14;;;;;;;2.78;2.58;;;;;;;18.50;100.00;101360.81;6282179;22;20797;-86
2023/09/29 08:17:41;;;;;;;7.05;3.10;;;;;;;18.52;100.00;101364.50;6280832;22;20016;-85
2023/09/29 08:20:09;;;;;;;3.25;2.83;;;;;;;18.55;100.00;101365.50;6277978;22;20016;-86
2023/09/29 08:22:36;;;;;;;2.80;2.60;;;;;;;18.58;100.00;101367.25;6280421;22;20420;-86
2023/09/29 08:25:10;;;;;;;3.17;2.92;;;;;;;18.58;100.00;101370.69;6280958;22;20016;-86
2023/09/29 08:27:38;;;;;;;5.97;2.97;;;;;;;18.62;100.00;101367.78;6280846;22;20091;-85
2023/09/29 08:30:06;;;;;;;4.72;2.90;;;;;;;18.66;100.00;101368.31;6280102;22;20087;-86
2023/09/29 08:32:36;;;;;;;5.32;3.00;;;;;;;18.74;100.00;101374.75;6279700;22;20056;-87
2023/09/29 08:35:03;;;;;;;3.05;2.83;;;;;;;18.81;100.00;101374.28;6278982;22;20043;-86
2023/09/29 08:37:30;;;;;;;2.95;2.67;;;;;;;18.92;100.00;101366.25;6278352;22;20016;-85
2023/09/29 08:39:56;;;;;;;6.10;2.90;;;;;;;19.09;100.00;101377.16;6280939;22;20016;-85
2023/09/29 08:42:37;;;;;;;3.72;2.90;;;;;;;19.20;100.00;101374.47;6281723;22;20272;-89
2023/09/29 08:45:13;;;;;;;6.93;2.80;;;;;;;19.27;100.00;101376.72;6280616;22;20019;-86
2023/09/29 08:47:41;;;;;;;3.75;2.63;;;;;;;19.35;100.00;101389.75;6281265;22;20016;-80
2023/09/29 08:50:09;;;;;;;4.10;2.65;;;;;;;19.42;100.00;101386.59;6280919;22;20532;-85
2023/09/29 08:52:36;;;;;;;3.33;2.70;;;;;;;19.46;99.73;101390.56;6281103;22;20020;-85
2023/09/29 08:55:03;;;;;;;3.20;2.70;;;;;;;19.54;99.74;101380.81;6281191;22;20043;-85
2023/09/29 08:57:30;;;;;;;3.63;2.55;;;;;;;19.87;97.87;101388.25;6281322;22;20018;-85
2023/09/29 08:59:59;;;;;;;2.95;2.42;;;;;;;20.01;96.62;101385.78;6281756;22;20023;-85
2023/09/29 09:02:26;;;;;;;4.88;3.08;;;;;;;20.10;95.11;101389.00;6278878;22;20143;-77
2023/09/29 09:04:53;;;;;;;5.43;2.88;;;;;;;20.12;94.57;101386.53;6281398;22;20047;-80
2023/09/29 09:07:20;;;;;;;5.50;2.72;;;;;;;20.13;95.84;101390.72;6280735;22;20044;-78
2023/09/29 09:09:52;;;;;;;3.05;2.78;;;;;;;20.16;93.57;101394.41;6281437;22;20039;-77
2023/09/29 09:12:32;;;;;;;3.85;2.63;;;;;;;20.25;94.31;101397.63;6281299;22;20020;-76
2023/09/29 09:14:59;;;;;;;3.00;2.70;;;;;;;20.31;93.37;101394.94;6281507;22;20023;-77
2023/09/29 09:17:27;;;;;;;9.00;2.92;;;;;;;20.38;93.74;101393.72;6278450;22;20016;-78
2023/09/29 09:19:54;;;;;;;3.97;2.83;;;;;;;20.54;93.04;101411.91;6279379;22;20458;-77
2023/09/29 09:22:24;;;;;;;9.00;2.90;;;;;;;20.66;92.61;101405.25;6280018;22;20078;-78
2023/09/29 09:25:12;;;;;;;9.23;2.90;;;;;;;20.69;91.96;101412.41;6281034;22;20016;-89
2023/09/29 09:27:43;;;;;;;3.75;2.90;;;;;;;20.72;91.97;101405.25;6281672;22;20091;-90
2023/09/29 09:30:21;;;;;;;3.80;2.58;;;;;;;20.64;91.19;101407.72;6279983;22;20020;-87
2023/09/29 09:32:48;;;;;;;3.22;2.75;;;;;;;20.59;91.50;101406.50;6281468;22;20020;-83
2023/09/29 09:35:25;;;;;;;3.22;2.60;;;;;;;20.54;91.80;101409.19;6281114;22;20016;-80
2023/09/29 09:37:52;;;;;;;4.20;2.70;;;;;;;20.48;91.52;101411.16;6281533;22;20471;-85
2023/09/29 09:40:20;;;;;;;4.20;2.80;;;;;;;20.43;92.11;101406.50;6281001;22;20016;-82
2023/09/29 09:42:47;;;;;;;4.10;2.70;;;;;;;20.39;92.33;101406.75;6280167;22;20021;-80
2023/09/29 09:45:13;;;;;;;5.95;2.70;;;;;;;20.36;92.27;101418.53;6279996;22;20016;-79
2023/09/29 09:47:40;;;;;;;6.25;2.70;;;;;;;20.31;92.34;101424.66;6280572;22;20043;-79
2023/09/29 09:50:11;;;;;;;4.97;2.58;;;;;;;20.28;92.27;101420.25;6278387;22;20016;-79
2023/09/29 09:52:39;;;;;;;5.65;2.53;;;;;;;20.26;92.55;101420.72;6280515;22;20047;-80
2023/09/29 09:55:13;;;;;;;3.97;2.17;;;;;;;20.24;92.47;101422.44;6281429;22;20362;-82
2023/09/29 09:57:42;;;;;;;2.55;2.33;;;;;;;20.25;92.63;101421.94;6279057;22;20074;-79
2023/09/29 10:00:11;;;;;;;7.32;2.42;;;;;;;20.36;92.95;101428.59;6279897;22;20040;-80
2023/09/29 10:02:46;;;;;;;3.15;2.38;;;;;;;20.38;91.55;101429.63;6280759;22;20016;-89
2023/09/29 10:05:25;;;;;;;4.05;2.55;;;;;;;20.36;91.82;101436.72;6279656;22;20017;-84
2023/09/29 10:07:55;;;;;;;5.97;2.42;;;;;;;20.33;91.46;101435.00;6254049;22;20020;-85
2023/09/29 10:10:25;;;;;;;4.45;2.20;;;;;;;20.36;91.95;101431.31;6280359;22;20055;-80
2023/09/29 10:12:55;;;;;;;3.10;1.95;;;;;;;20.40;91.42;101434.50;6279189;22;20402;-83
2023/09/29 10:15:22;;;;;;;2.00;1.90;;;;;;;20.40;91.51;101439.91;6279945;22;20071;-86
2023/09/29 10:17:49;;;;;;;2.90;2.05;;;;;;;20.38;92.17;101443.13;6280737;22;20012;-82
2023/09/29 10:20:26;;;;;;;1.90;1.80;;;;;;;20.36;92.72;101442.84;6280220;22;20404;-88
2023/09/29 10:23:07;;;;;;;4.22;2.30;;;;;;;20.39;93.40;101452.00;6280314;22;20026;-83
2023/09/29 10:25:38;;;;;;;3.10;2.10;;;;;;;20.39;93.23;101447.31;6278683;22;20458;-80
2023/09/29 10:28:07;;;;;;;2.67;1.88;;;;;;;20.41;93.13;101449.50;6279143;22;20027;-81
2023/09/29 10:30:35;;;;;;;1.92;1.70;;;;;;;20.36;92.52;101452.94;6279951;22;20024;-82
2023/09/29 10:33:13;;;;;;;3.88;2.10;;;;;;;20.35;92.97;101454.91;6280940;22;20517;-82
2023/09/29 10:35:47;;;;;;;6.32;1.80;;;;;;;20.33;93.81;101464.72;6280282;22;20438;-80
2023/09/29 10:38:22;;;;;;;6.88;2.33;;;;;;;20.38;93.39;101461.31;6280192;22;20457;-81
2023/09/29 10:40:50;;;;;;;2.28;2.03;;;;;;;20.40;94.41;101470.41;6280385;22;20012;-81
2023/09/29 10:43:17;;;;;;;2.47;2.10;;;;;;;20.30;94.96;101474.56;6280144;22;20024;-89
2023/09/29 10:45:45;;;;;;;3.17;2.03;;;;;;;20.20;95.61;101471.34;6280944;22;20023;-88
2023/09/29 10:48:11;;;;;;;2.55;2.08;;;;;;;20.26;96.38;101482.91;6281663;22;20092;-87
2023/09/29 10:50:51;;;;;;;2.20;2.00;;;;;;;20.28;95.92;101472.34;6281840;22;20039;-91
2023/09/29 10:53:22;;;;;;;3.83;2.42;;;;;;;20.21;95.39;101472.81;6282352;22;20023;-92
2023/09/29 10:55:51;;;;;;;3.53;2.50;;;;;;;20.16;96.41;101475.50;6282737;22;20016;-94
2023/09/29 10:58:19;;;;;;;2.35;2.20;;;;;;;20.15;96.96;101476.72;6281823;22;20452;-91
2023/09/29 11:00:50;;;;;;;3.13;2.60;;;;;;;20.13;96.64;101485.31;6282722;22;20012;-91
2023/09/29 11:03:22;;;;;;;4.22;2.50;;;;;;;20.09;96.96;101487.53;6282863;22;20030;-90
2023/09/29 11:05:52;;;;;;;2.72;2.40;;;;;;;20.06;97.39;101487.75;6283033;22;20051;-90
2023/09/29 11:08:27;;;;;;;2.40;2.20;;;;;;;20.08;97.57;101479.91;6284514;22;20012;-90
2023/09/29 11:10:55;;;;;;;3.95;2.33;;;;;;;20.13;97.34;101488.03;6284846;22;20464;-91
2023/09/29 11:13:23;;;;;;;3.72;2.17;;;;;;;20.15;97.72;101482.13;6254872;22;20028;-89
2023/09/29 11:15:51;;;;;;;2.97;2.50;;;;;;;20.18;99.53;101491.97;6282443;22;20012;-90
2023/09/29 11:18:34;;;;;;;4.07;2.67;;;;;;;20.21;99.54;101485.59;6281942;22;20390;-91
2023/09/29 11:21:08;;;;;;;7.70;3.13;;;;;;;20.14;100.00;101499.56;6281807;22;20078;-89
2023/09/29 11:23:40;;;;;;;3.90;2.65;;;;;;;20.09;100.00;101494.91;6281092;22;20023;-87